EIN65Y EIDW-EDDF
Flight info
| Callsign | EIN65Y |
|---|---|
| Flight time | 1h 38m |
| Altitude | 37000 |
| Route | ENDEQ3J ENDEQ Q36 ALAVA Z195 MALUD UL975 WAL M16 DOLAS DCT NAVPI DCT NOLRU DCT DIXAT DIXAT1A |
| Aircraft | A320/M-SDE3FGHIRWY/LB1 |
Departure
| Time | 2026-05-07 08:05 |
|---|---|
| Airport | Dublin Airport (EIDW) |
Arrival
| Time | 2026-05-07 09:44 |
|---|---|
| Airport | Frankfurt Main Airport (EDDF) |
| Time | Latitude | Longitude | Altitude | Speed | Heading |
|---|---|---|---|---|---|
| 2026-05-07 07:13 | 53.42210 | -6.23729 | 211 ft | 0 kts | 27° |
| 2026-05-07 07:52 | 53.42195 | -6.23742 | 213 ft | 4 kts | 14° |
| 2026-05-07 07:52 | 53.42169 | -6.23743 | 211 ft | 4 kts | 337° |
| 2026-05-07 07:52 | 53.42150 | -6.23719 | 213 ft | 2 kts | 298° |
| 2026-05-07 07:53 | 53.42149 | -6.23715 | 215 ft | 0 kts | 297° |
| 2026-05-07 07:55 | 53.42150 | -6.23717 | 211 ft | 2 kts | 297° |
| 2026-05-07 07:55 | 53.42175 | -6.23777 | 211 ft | 8 kts | 311° |
| 2026-05-07 07:55 | 53.42210 | -6.23865 | 211 ft | 8 kts | 298° |
| 2026-05-07 07:56 | 53.42234 | -6.23944 | 213 ft | 7 kts | 296° |
| 2026-05-07 07:56 | 53.42261 | -6.24044 | 211 ft | 9 kts | 283° |
| 2026-05-07 07:56 | 53.42238 | -6.24130 | 218 ft | 8 kts | 227° |
| 2026-05-07 07:56 | 53.42184 | -6.24212 | 211 ft | 12 kts | 221° |
| 2026-05-07 07:57 | 53.42158 | -6.24340 | 211 ft | 12 kts | 274° |
| 2026-05-07 07:57 | 53.42167 | -6.24484 | 211 ft | 13 kts | 275° |
| 2026-05-07 07:57 | 53.42175 | -6.24635 | 214 ft | 13 kts | 275° |
| 2026-05-07 07:57 | 53.42206 | -6.24748 | 211 ft | 9 kts | 328° |
| 2026-05-07 07:58 | 53.42265 | -6.24791 | 215 ft | 11 kts | 336° |
| 2026-05-07 07:58 | 53.42350 | -6.24853 | 212 ft | 16 kts | 336° |
| 2026-05-07 07:58 | 53.42462 | -6.24935 | 218 ft | 18 kts | 336° |
| 2026-05-07 07:58 | 53.42569 | -6.25012 | 211 ft | 16 kts | 336° |
| 2026-05-07 07:59 | 53.42663 | -6.25080 | 216 ft | 14 kts | 336° |
| 2026-05-07 07:59 | 53.42724 | -6.25171 | 213 ft | 10 kts | 304° |
| 2026-05-07 07:59 | 53.42779 | -6.25230 | 213 ft | 11 kts | 335° |
| 2026-05-07 07:59 | 53.42867 | -6.25296 | 212 ft | 15 kts | 337° |
| 2026-05-07 08:00 | 53.42960 | -6.25363 | 211 ft | 14 kts | 337° |
| 2026-05-07 08:00 | 53.43040 | -6.25420 | 211 ft | 12 kts | 336° |
| 2026-05-07 08:00 | 53.43125 | -6.25484 | 212 ft | 19 kts | 336° |
| 2026-05-07 08:00 | 53.43247 | -6.25571 | 211 ft | 18 kts | 336° |
| 2026-05-07 08:01 | 53.43329 | -6.25631 | 212 ft | 12 kts | 336° |
| 2026-05-07 08:01 | 53.43396 | -6.25628 | 212 ft | 10 kts | 44° |
| 2026-05-07 08:01 | 53.43402 | -6.25474 | 211 ft | 18 kts | 95° |
| 2026-05-07 08:01 | 53.43391 | -6.25275 | 214 ft | 17 kts | 95° |
| 2026-05-07 08:02 | 53.43381 | -6.25085 | 211 ft | 16 kts | 95° |
| 2026-05-07 08:02 | 53.43371 | -6.24910 | 215 ft | 16 kts | 95° |
| 2026-05-07 08:02 | 53.43360 | -6.24695 | 211 ft | 21 kts | 95° |
| 2026-05-07 08:02 | 53.43344 | -6.24426 | 211 ft | 24 kts | 96° |
| 2026-05-07 08:03 | 53.43329 | -6.24147 | 219 ft | 19 kts | 95° |
| 2026-05-07 08:03 | 53.43317 | -6.23944 | 213 ft | 14 kts | 94° |
| 2026-05-07 08:03 | 53.43376 | -6.23856 | 215 ft | 12 kts | 4° |
| 2026-05-07 08:03 | 53.43457 | -6.23847 | 217 ft | 7 kts | 4° |
| 2026-05-07 08:04 | 53.43487 | -6.23877 | 211 ft | 5 kts | 282° |
| 2026-05-07 08:04 | 53.43490 | -6.23939 | 216 ft | 11 kts | 275° |
| 2026-05-07 08:04 | 53.43518 | -6.24454 | 215 ft | 80 kts | 275° |
| 2026-05-07 08:04 | 53.43588 | -6.25737 | 209 ft | 139 kts | 275° |
| 2026-05-07 08:05 | 53.43688 | -6.27546 | 491 ft | 157 kts | 271° |
| 2026-05-07 08:05 | 53.43829 | -6.29338 | 1131 ft | 158 kts | 287° |
| 2026-05-07 08:05 | 53.44212 | -6.30397 | 1474 ft | 165 kts | 311° |
| 2026-05-07 08:05 | 53.45054 | -6.31855 | 1877 ft | 182 kts | 307° |
| 2026-05-07 08:06 | 53.45882 | -6.33592 | 2259 ft | 199 kts | 308° |
| 2026-05-07 08:06 | 53.47079 | -6.34945 | 2707 ft | 218 kts | 341° |
| 2026-05-07 08:06 | 53.48608 | -6.35144 | 3419 ft | 224 kts | 2° |
| 2026-05-07 08:06 | 53.50179 | -6.34991 | 4149 ft | 229 kts | 4° |
| 2026-05-07 08:07 | 53.51680 | -6.34121 | 4846 ft | 234 kts | 40° |
| 2026-05-07 08:07 | 53.52598 | -6.31864 | 5335 ft | 245 kts | 78° |
| 2026-05-07 08:07 | 53.52751 | -6.28902 | 5699 ft | 265 kts | 92° |
| 2026-05-07 08:07 | 53.52703 | -6.25751 | 6426 ft | 272 kts | 95° |
| 2026-05-07 08:08 | 53.52606 | -6.22558 | 7229 ft | 276 kts | 95° |
| 2026-05-07 08:08 | 53.52502 | -6.19308 | 8007 ft | 281 kts | 96° |
| 2026-05-07 08:08 | 53.52407 | -6.16000 | 8795 ft | 286 kts | 96° |
| 2026-05-07 08:08 | 53.52325 | -6.12639 | 9591 ft | 290 kts | 95° |
| 2026-05-07 08:09 | 53.52256 | -6.09223 | 10292 ft | 297 kts | 95° |
| 2026-05-07 08:09 | 53.51988 | -6.05668 | 10523 ft | 317 kts | 106° |
| 2026-05-07 08:09 | 53.51446 | -6.01951 | 10810 ft | 336 kts | 107° |
| 2026-05-07 08:09 | 53.50889 | -5.98101 | 11421 ft | 343 kts | 106° |
| 2026-05-07 08:10 | 53.50324 | -5.94176 | 12108 ft | 347 kts | 106° |
| 2026-05-07 08:10 | 53.49754 | -5.90218 | 12799 ft | 351 kts | 106° |
| 2026-05-07 08:10 | 53.49174 | -5.86203 | 13484 ft | 355 kts | 105° |
| 2026-05-07 08:10 | 53.48597 | -5.82141 | 14124 ft | 360 kts | 105° |
| 2026-05-07 08:11 | 53.48057 | -5.78017 | 14745 ft | 363 kts | 104° |
| 2026-05-07 08:11 | 53.47549 | -5.73903 | 15351 ft | 366 kts | 103° |
| 2026-05-07 08:11 | 53.47041 | -5.69693 | 15955 ft | 370 kts | 103° |
| 2026-05-07 08:11 | 53.46525 | -5.65445 | 16565 ft | 373 kts | 103° |
| 2026-05-07 08:12 | 53.45994 | -5.61170 | 17163 ft | 376 kts | 104° |
| 2026-05-07 08:12 | 53.45445 | -5.56854 | 17765 ft | 380 kts | 104° |
| 2026-05-07 08:12 | 53.44885 | -5.52505 | 18343 ft | 383 kts | 104° |
| 2026-05-07 08:12 | 53.44513 | -5.48055 | 18893 ft | 386 kts | 94° |
| 2026-05-07 08:13 | 53.44417 | -5.43566 | 19538 ft | 386 kts | 94° |
| 2026-05-07 08:13 | 53.44315 | -5.39064 | 20114 ft | 387 kts | 94° |
| 2026-05-07 08:13 | 53.44206 | -5.34535 | 20671 ft | 389 kts | 94° |
| 2026-05-07 08:13 | 53.44089 | -5.29992 | 21217 ft | 391 kts | 94° |
| 2026-05-07 08:14 | 53.43965 | -5.25428 | 21763 ft | 393 kts | 94° |
| 2026-05-07 08:14 | 53.43837 | -5.20827 | 22310 ft | 395 kts | 95° |
| 2026-05-07 08:14 | 53.43711 | -5.16207 | 22841 ft | 397 kts | 95° |
| 2026-05-07 08:14 | 53.43582 | -5.11567 | 23355 ft | 400 kts | 96° |
| 2026-05-07 08:15 | 53.43443 | -5.06901 | 23808 ft | 402 kts | 95° |
| 2026-05-07 08:15 | 53.43293 | -5.02201 | 24216 ft | 404 kts | 95° |
| 2026-05-07 08:15 | 53.43138 | -4.97483 | 24611 ft | 407 kts | 94° |
| 2026-05-07 08:15 | 53.42978 | -4.92736 | 25002 ft | 409 kts | 96° |
| 2026-05-07 08:16 | 53.42818 | -4.87959 | 25384 ft | 411 kts | 96° |
| 2026-05-07 08:16 | 53.42658 | -4.83163 | 25757 ft | 413 kts | 95° |
| 2026-05-07 08:16 | 53.42502 | -4.78405 | 26114 ft | 415 kts | 94° |
| 2026-05-07 08:16 | 53.42344 | -4.73562 | 26467 ft | 417 kts | 95° |
| 2026-05-07 08:17 | 53.42181 | -4.68690 | 26839 ft | 419 kts | 94° |
| 2026-05-07 08:17 | 53.42012 | -4.63797 | 27185 ft | 421 kts | 94° |
| 2026-05-07 08:17 | 53.41840 | -4.58880 | 27520 ft | 424 kts | 95° |
| 2026-05-07 08:17 | 53.41665 | -4.53938 | 27854 ft | 426 kts | 95° |
| 2026-05-07 08:18 | 53.41487 | -4.48962 | 28180 ft | 428 kts | 95° |
| 2026-05-07 08:18 | 53.41305 | -4.43980 | 28503 ft | 430 kts | 94° |
| 2026-05-07 08:18 | 53.41120 | -4.38962 | 28823 ft | 432 kts | 95° |
| 2026-05-07 08:18 | 53.40934 | -4.33930 | 29136 ft | 434 kts | 95° |
| 2026-05-07 08:19 | 53.40745 | -4.28871 | 29441 ft | 436 kts | 94° |
| 2026-05-07 08:19 | 53.40554 | -4.23785 | 29739 ft | 438 kts | 94° |
| 2026-05-07 08:19 | 53.40362 | -4.18689 | 30014 ft | 440 kts | 94° |
| 2026-05-07 08:19 | 53.40165 | -4.13561 | 30260 ft | 441 kts | 95° |
| 2026-05-07 08:20 | 53.39966 | -4.08425 | 30517 ft | 442 kts | 94° |
| 2026-05-07 08:20 | 53.39766 | -4.03282 | 30780 ft | 443 kts | 94° |
| 2026-05-07 08:20 | 53.39585 | -3.98133 | 31022 ft | 444 kts | 91° |
| 2026-05-07 08:20 | 53.39730 | -3.92966 | 31279 ft | 444 kts | 85° |
| 2026-05-07 08:21 | 53.39997 | -3.87810 | 31619 ft | 443 kts | 85° |
| 2026-05-07 08:21 | 53.40258 | -3.82742 | 31955 ft | 441 kts | 85° |
| 2026-05-07 08:21 | 53.40519 | -3.77633 | 32290 ft | 440 kts | 86° |
| 2026-05-07 08:21 | 53.40775 | -3.72538 | 32618 ft | 439 kts | 86° |
| 2026-05-07 08:22 | 53.41025 | -3.67446 | 32956 ft | 437 kts | 86° |
| 2026-05-07 08:22 | 53.41262 | -3.62381 | 33287 ft | 436 kts | 88° |
| 2026-05-07 08:22 | 53.41194 | -3.57322 | 33631 ft | 433 kts | 95° |
| 2026-05-07 08:22 | 53.40960 | -3.52301 | 34011 ft | 430 kts | 95° |
| 2026-05-07 08:23 | 53.40733 | -3.47313 | 34277 ft | 430 kts | 95° |
| 2026-05-07 08:23 | 53.40509 | -3.42317 | 34539 ft | 429 kts | 95° |
| 2026-05-07 08:23 | 53.40288 | -3.37335 | 34757 ft | 429 kts | 95° |
| 2026-05-07 08:23 | 53.40066 | -3.32346 | 34933 ft | 430 kts | 95° |
| 2026-05-07 08:24 | 53.39840 | -3.27344 | 35156 ft | 430 kts | 95° |
| 2026-05-07 08:24 | 53.39607 | -3.22339 | 35329 ft | 431 kts | 95° |
| 2026-05-07 08:24 | 53.39371 | -3.17322 | 35488 ft | 432 kts | 96° |
| 2026-05-07 08:24 | 53.39134 | -3.12296 | 35680 ft | 433 kts | 95° |
| 2026-05-07 08:25 | 53.38920 | -3.07268 | 35827 ft | 434 kts | 94° |
| 2026-05-07 08:25 | 53.38736 | -3.02217 | 35981 ft | 435 kts | 94° |
| 2026-05-07 08:25 | 53.38566 | -2.97155 | 36150 ft | 435 kts | 94° |
| 2026-05-07 08:25 | 53.38397 | -2.92163 | 36297 ft | 436 kts | 94° |
| 2026-05-07 08:26 | 53.38019 | -2.82017 | 36603 ft | 437 kts | 95° |
| 2026-05-07 08:26 | 53.37816 | -2.76934 | 36761 ft | 438 kts | 95° |
| 2026-05-07 08:26 | 53.37612 | -2.71849 | 36903 ft | 438 kts | 95° |
| 2026-05-07 08:27 | 53.37407 | -2.66755 | 37048 ft | 438 kts | 95° |
| 2026-05-07 08:27 | 53.37202 | -2.61662 | 37073 ft | 438 kts | 95° |
| 2026-05-07 08:27 | 53.36785 | -2.51496 | 37078 ft | 438 kts | 95° |
| 2026-05-07 08:28 | 53.36358 | -2.41322 | 37084 ft | 438 kts | 94° |
| 2026-05-07 08:28 | 53.35914 | -2.31151 | 37084 ft | 438 kts | 95° |
| 2026-05-07 08:29 | 53.35178 | -2.21063 | 37085 ft | 437 kts | 101° |
| 2026-05-07 08:29 | 53.34165 | -2.11091 | 37086 ft | 437 kts | 100° |
| 2026-05-07 08:30 | 53.33131 | -2.01064 | 37084 ft | 437 kts | 101° |
| 2026-05-07 08:30 | 53.32089 | -1.91041 | 37082 ft | 438 kts | 100° |
| 2026-05-07 08:31 | 53.31037 | -1.81013 | 37083 ft | 438 kts | 100° |
| 2026-05-07 08:31 | 53.29973 | -1.71001 | 37084 ft | 437 kts | 100° |
| 2026-05-07 08:32 | 53.28897 | -1.60992 | 37086 ft | 437 kts | 101° |
| 2026-05-07 08:32 | 53.27824 | -1.50995 | 37081 ft | 437 kts | 101° |
| 2026-05-07 08:33 | 53.26742 | -1.41013 | 37089 ft | 437 kts | 101° |
| 2026-05-07 08:33 | 53.25645 | -1.31020 | 37088 ft | 437 kts | 101° |
| 2026-05-07 08:34 | 53.24549 | -1.21030 | 37090 ft | 437 kts | 101° |
| 2026-05-07 08:34 | 53.23449 | -1.11062 | 37103 ft | 436 kts | 101° |
| 2026-05-07 08:35 | 53.22339 | -1.01201 | 37100 ft | 435 kts | 101° |
| 2026-05-07 08:35 | 53.21212 | -0.91303 | 37099 ft | 434 kts | 101° |
| 2026-05-07 08:36 | 53.20085 | -0.81413 | 37097 ft | 433 kts | 101° |
| 2026-05-07 08:36 | 53.18954 | -0.71539 | 37097 ft | 433 kts | 101° |
| 2026-05-07 08:37 | 53.17815 | -0.61675 | 37096 ft | 433 kts | 101° |
| 2026-05-07 08:37 | 53.16670 | -0.51816 | 37091 ft | 433 kts | 101° |
| 2026-05-07 08:38 | 53.15520 | -0.41957 | 37088 ft | 433 kts | 101° |
| 2026-05-07 08:38 | 53.14352 | -0.32106 | 37089 ft | 433 kts | 101° |
| 2026-05-07 08:39 | 53.13177 | -0.22271 | 37089 ft | 433 kts | 101° |
| 2026-05-07 08:39 | 53.11992 | -0.12429 | 37089 ft | 433 kts | 101° |
| 2026-05-07 08:40 | 53.10809 | -0.02594 | 37089 ft | 433 kts | 101° |
| 2026-05-07 08:40 | 53.09624 | 0.07159 | 37090 ft | 433 kts | 101° |
| 2026-05-07 08:41 | 53.08415 | 0.16985 | 37086 ft | 434 kts | 101° |
| 2026-05-07 08:41 | 53.07200 | 0.26810 | 37094 ft | 434 kts | 101° |
| 2026-05-07 08:42 | 53.05974 | 0.36627 | 37093 ft | 434 kts | 101° |
| 2026-05-07 08:42 | 53.04741 | 0.46440 | 37095 ft | 434 kts | 102° |
| 2026-05-07 08:43 | 53.03506 | 0.56254 | 37093 ft | 434 kts | 101° |
| 2026-05-07 08:43 | 53.02260 | 0.66062 | 37096 ft | 434 kts | 101° |
| 2026-05-07 08:44 | 53.01001 | 0.75877 | 37096 ft | 434 kts | 101° |
| 2026-05-07 08:44 | 52.99736 | 0.85677 | 37102 ft | 434 kts | 102° |
| 2026-05-07 08:45 | 52.98464 | 0.95482 | 37100 ft | 435 kts | 102° |
| 2026-05-07 08:45 | 52.96735 | 1.05081 | 37107 ft | 435 kts | 110° |
| 2026-05-07 08:46 | 52.94617 | 1.14419 | 37103 ft | 436 kts | 110° |
| 2026-05-07 08:46 | 52.92493 | 1.23825 | 37109 ft | 436 kts | 110° |
| 2026-05-07 08:47 | 52.90359 | 1.33225 | 37114 ft | 436 kts | 110° |
| 2026-05-07 08:47 | 52.88211 | 1.42617 | 37118 ft | 436 kts | 110° |
| 2026-05-07 08:48 | 52.86050 | 1.51997 | 37116 ft | 436 kts | 110° |
| 2026-05-07 08:48 | 52.83893 | 1.61372 | 37105 ft | 436 kts | 110° |
| 2026-05-07 08:49 | 52.81729 | 1.70745 | 37101 ft | 436 kts | 110° |
| 2026-05-07 08:49 | 52.79553 | 1.80109 | 37101 ft | 437 kts | 111° |
| 2026-05-07 08:50 | 52.77363 | 1.89470 | 37100 ft | 437 kts | 110° |
| 2026-05-07 08:50 | 52.75179 | 1.98759 | 37105 ft | 437 kts | 111° |
| 2026-05-07 08:51 | 52.72966 | 2.08117 | 37098 ft | 438 kts | 111° |
| 2026-05-07 08:51 | 52.70747 | 2.17480 | 37099 ft | 439 kts | 111° |
| 2026-05-07 08:52 | 52.68516 | 2.26852 | 37103 ft | 439 kts | 111° |
| 2026-05-07 08:52 | 52.66284 | 2.36225 | 37110 ft | 439 kts | 111° |
| 2026-05-07 08:53 | 52.64037 | 2.45590 | 37106 ft | 439 kts | 111° |
| 2026-05-07 08:53 | 52.61788 | 2.54936 | 37101 ft | 440 kts | 111° |
| 2026-05-07 08:54 | 52.59530 | 2.64296 | 37101 ft | 440 kts | 111° |
| 2026-05-07 08:54 | 52.57258 | 2.73635 | 37100 ft | 440 kts | 111° |
| 2026-05-07 08:55 | 52.55360 | 2.81394 | 37090 ft | 440 kts | 111° |
| 2026-05-07 08:55 | 52.52936 | 2.90627 | 37092 ft | 440 kts | 115° |
| 2026-05-07 08:56 | 52.49810 | 3.01200 | 37090 ft | 441 kts | 116° |
| 2026-05-07 08:56 | 52.47097 | 3.10220 | 37081 ft | 441 kts | 116° |
| 2026-05-07 08:57 | 52.44428 | 3.19294 | 37079 ft | 442 kts | 116° |
| 2026-05-07 08:57 | 52.41786 | 3.28327 | 37083 ft | 442 kts | 116° |
| 2026-05-07 08:58 | 52.39121 | 3.37418 | 37079 ft | 443 kts | 116° |
| 2026-05-07 08:58 | 52.36876 | 3.45029 | 37085 ft | 444 kts | 116° |
| 2026-05-07 08:59 | 52.33735 | 3.55587 | 37083 ft | 444 kts | 117° |
| 2026-05-07 08:59 | 52.31461 | 3.63201 | 37084 ft | 445 kts | 116° |
| 2026-05-07 09:00 | 52.28762 | 3.72221 | 37091 ft | 445 kts | 117° |
| 2026-05-07 09:00 | 52.26035 | 3.81306 | 37094 ft | 446 kts | 116° |
| 2026-05-07 09:01 | 52.23304 | 3.90376 | 37101 ft | 445 kts | 117° |
| 2026-05-07 09:01 | 52.20560 | 3.99440 | 37083 ft | 446 kts | 117° |
| 2026-05-07 09:02 | 52.17802 | 4.08494 | 37087 ft | 446 kts | 117° |
| 2026-05-07 09:02 | 52.15043 | 4.17550 | 37083 ft | 446 kts | 117° |
| 2026-05-07 09:03 | 52.12290 | 4.26590 | 37086 ft | 446 kts | 117° |
| 2026-05-07 09:03 | 52.09511 | 4.35611 | 37075 ft | 446 kts | 117° |
| 2026-05-07 09:04 | 52.06726 | 4.44618 | 37076 ft | 446 kts | 117° |
| 2026-05-07 09:04 | 52.03967 | 4.53572 | 37073 ft | 446 kts | 117° |
| 2026-05-07 09:05 | 52.01176 | 4.62563 | 37092 ft | 446 kts | 117° |
| 2026-05-07 09:05 | 51.98372 | 4.71533 | 37073 ft | 446 kts | 118° |
| 2026-05-07 09:06 | 51.95567 | 4.80504 | 37075 ft | 446 kts | 117° |
| 2026-05-07 09:06 | 51.92761 | 4.89472 | 37064 ft | 446 kts | 118° |
| 2026-05-07 09:07 | 51.89945 | 4.98420 | 37072 ft | 446 kts | 118° |
| 2026-05-07 09:07 | 51.87112 | 5.07360 | 37076 ft | 446 kts | 118° |
| 2026-05-07 09:08 | 51.84272 | 5.16284 | 37076 ft | 446 kts | 118° |
| 2026-05-07 09:08 | 51.81426 | 5.25196 | 37078 ft | 446 kts | 118° |
| 2026-05-07 09:09 | 51.78577 | 5.34101 | 37078 ft | 446 kts | 118° |
| 2026-05-07 09:09 | 51.75746 | 5.42947 | 37075 ft | 446 kts | 118° |
| 2026-05-07 09:10 | 51.72882 | 5.51839 | 37073 ft | 446 kts | 118° |
| 2026-05-07 09:10 | 51.70003 | 5.60717 | 37076 ft | 446 kts | 118° |
| 2026-05-07 09:11 | 51.67122 | 5.69590 | 37066 ft | 447 kts | 118° |
| 2026-05-07 09:11 | 51.64240 | 5.78444 | 37067 ft | 447 kts | 118° |
| 2026-05-07 09:12 | 51.61350 | 5.87301 | 37069 ft | 447 kts | 118° |
| 2026-05-07 09:12 | 51.58449 | 5.96135 | 37074 ft | 447 kts | 118° |
| 2026-05-07 09:13 | 51.55537 | 6.04962 | 37071 ft | 447 kts | 118° |
| 2026-05-07 09:13 | 51.52626 | 6.13781 | 37071 ft | 447 kts | 118° |
| 2026-05-07 09:14 | 51.49815 | 6.22604 | 37066 ft | 447 kts | 112° |
| 2026-05-07 09:14 | 51.47541 | 6.31962 | 37060 ft | 447 kts | 112° |
| 2026-05-07 09:15 | 51.45321 | 6.40996 | 36969 ft | 426 kts | 112° |
| 2026-05-07 09:15 | 51.44242 | 6.45360 | 36545 ft | 421 kts | 112° |
| 2026-05-07 09:15 | 51.43146 | 6.49794 | 35986 ft | 434 kts | 112° |
| 2026-05-07 09:16 | 51.42027 | 6.54312 | 35639 ft | 438 kts | 112° |
| 2026-05-07 09:16 | 51.40898 | 6.58862 | 35386 ft | 438 kts | 112° |
| 2026-05-07 09:16 | 51.39774 | 6.63381 | 34946 ft | 435 kts | 111° |
| 2026-05-07 09:16 | 51.38659 | 6.67864 | 34417 ft | 433 kts | 111° |
| 2026-05-07 09:17 | 51.37548 | 6.72325 | 33863 ft | 431 kts | 111° |
| 2026-05-07 09:17 | 51.36442 | 6.76762 | 33321 ft | 427 kts | 111° |
| 2026-05-07 09:17 | 51.35345 | 6.81148 | 32812 ft | 423 kts | 111° |
| 2026-05-07 09:17 | 51.34256 | 6.85486 | 32310 ft | 419 kts | 111° |
| 2026-05-07 09:18 | 51.33171 | 6.89797 | 31795 ft | 416 kts | 111° |
| 2026-05-07 09:18 | 51.32094 | 6.94072 | 31327 ft | 413 kts | 111° |
| 2026-05-07 09:18 | 51.31023 | 6.98310 | 30838 ft | 410 kts | 111° |
| 2026-05-07 09:18 | 51.29956 | 7.02519 | 30363 ft | 407 kts | 111° |
| 2026-05-07 09:19 | 51.27647 | 7.10673 | 29397 ft | 399 kts | 122° |
| 2026-05-07 09:19 | 51.25955 | 7.14145 | 28945 ft | 395 kts | 134° |
| 2026-05-07 09:19 | 51.23901 | 7.17005 | 28524 ft | 390 kts | 145° |
| 2026-05-07 09:20 | 51.21580 | 7.19192 | 28091 ft | 386 kts | 154° |
| 2026-05-07 09:20 | 51.19188 | 7.21086 | 27665 ft | 382 kts | 154° |
| 2026-05-07 09:20 | 51.16820 | 7.22961 | 27243 ft | 378 kts | 154° |
| 2026-05-07 09:20 | 51.14471 | 7.24818 | 26823 ft | 375 kts | 154° |
| 2026-05-07 09:21 | 51.12143 | 7.26660 | 26402 ft | 372 kts | 154° |
| 2026-05-07 09:21 | 51.09840 | 7.28498 | 25971 ft | 369 kts | 153° |
| 2026-05-07 09:21 | 51.07564 | 7.30361 | 25537 ft | 367 kts | 153° |
| 2026-05-07 09:21 | 51.05302 | 7.32235 | 25105 ft | 365 kts | 153° |
| 2026-05-07 09:22 | 51.03052 | 7.34100 | 24673 ft | 367 kts | 153° |
| 2026-05-07 09:22 | 51.00790 | 7.35981 | 24219 ft | 367 kts | 153° |
| 2026-05-07 09:22 | 50.99295 | 7.37225 | 23923 ft | 366 kts | 153° |
| 2026-05-07 09:22 | 50.96311 | 7.39692 | 23296 ft | 364 kts | 153° |
| 2026-05-07 09:23 | 50.94792 | 7.40943 | 22984 ft | 362 kts | 153° |
| 2026-05-07 09:23 | 50.93317 | 7.42153 | 22692 ft | 360 kts | 153° |
| 2026-05-07 09:23 | 50.89633 | 7.45162 | 21960 ft | 356 kts | 153° |
| 2026-05-07 09:24 | 50.88892 | 7.45768 | 21814 ft | 356 kts | 153° |
| 2026-05-07 09:24 | 50.88149 | 7.46376 | 21672 ft | 355 kts | 153° |
| 2026-05-07 09:24 | 50.80831 | 7.52356 | 20216 ft | 349 kts | 152° |
| 2026-05-07 09:24 | 50.78678 | 7.54117 | 19785 ft | 348 kts | 152° |
| 2026-05-07 09:25 | 50.76528 | 7.55867 | 19360 ft | 347 kts | 152° |
| 2026-05-07 09:25 | 50.74382 | 7.57608 | 18945 ft | 347 kts | 152° |
| 2026-05-07 09:25 | 50.72237 | 7.59346 | 18517 ft | 346 kts | 152° |
| 2026-05-07 09:25 | 50.70094 | 7.61082 | 18063 ft | 346 kts | 152° |
| 2026-05-07 09:26 | 50.67958 | 7.62813 | 17631 ft | 344 kts | 152° |
| 2026-05-07 09:26 | 50.65837 | 7.64534 | 17212 ft | 342 kts | 153° |
| 2026-05-07 09:26 | 50.63721 | 7.66248 | 16790 ft | 341 kts | 153° |
| 2026-05-07 09:26 | 50.61614 | 7.67954 | 16388 ft | 340 kts | 153° |
| 2026-05-07 09:27 | 50.59513 | 7.69652 | 15975 ft | 338 kts | 153° |
| 2026-05-07 09:27 | 50.57423 | 7.71337 | 15592 ft | 337 kts | 153° |
| 2026-05-07 09:27 | 50.54126 | 7.76307 | 14827 ft | 331 kts | 115° |
| 2026-05-07 09:28 | 50.53260 | 7.79649 | 14467 ft | 329 kts | 110° |
| 2026-05-07 09:28 | 50.52445 | 7.83001 | 14101 ft | 328 kts | 110° |
| 2026-05-07 09:28 | 50.51641 | 7.86341 | 13735 ft | 327 kts | 109° |
| 2026-05-07 09:28 | 50.50838 | 7.89667 | 13329 ft | 325 kts | 110° |
| 2026-05-07 09:29 | 50.50033 | 7.92975 | 12937 ft | 323 kts | 110° |
| 2026-05-07 09:29 | 50.49225 | 7.96263 | 12537 ft | 322 kts | 110° |
| 2026-05-07 09:29 | 50.48422 | 7.99527 | 12149 ft | 320 kts | 110° |
| 2026-05-07 09:29 | 50.47633 | 8.02737 | 11771 ft | 318 kts | 110° |
| 2026-05-07 09:30 | 50.46836 | 8.05961 | 11488 ft | 313 kts | 109° |
| 2026-05-07 09:30 | 50.46052 | 8.09122 | 11228 ft | 308 kts | 110° |
| 2026-05-07 09:30 | 50.45282 | 8.12224 | 10982 ft | 303 kts | 110° |
| 2026-05-07 09:30 | 50.44523 | 8.15293 | 10733 ft | 300 kts | 109° |
| 2026-05-07 09:31 | 50.43776 | 8.18333 | 10484 ft | 298 kts | 109° |
| 2026-05-07 09:31 | 50.43032 | 8.21357 | 10240 ft | 296 kts | 109° |
| 2026-05-07 09:31 | 50.42289 | 8.24360 | 10056 ft | 295 kts | 109° |
| 2026-05-07 09:31 | 50.41549 | 8.27344 | 10010 ft | 293 kts | 109° |
| 2026-05-07 09:32 | 50.40809 | 8.30319 | 10016 ft | 293 kts | 109° |
| 2026-05-07 09:32 | 50.40066 | 8.33292 | 10014 ft | 293 kts | 109° |
| 2026-05-07 09:32 | 50.39320 | 8.36273 | 10023 ft | 294 kts | 110° |
| 2026-05-07 09:32 | 50.38575 | 8.39248 | 10023 ft | 294 kts | 109° |
| 2026-05-07 09:33 | 50.37829 | 8.42225 | 10016 ft | 294 kts | 110° |
| 2026-05-07 09:33 | 50.37080 | 8.45203 | 10017 ft | 294 kts | 110° |
| 2026-05-07 09:33 | 50.36332 | 8.48174 | 10018 ft | 294 kts | 110° |
| 2026-05-07 09:33 | 50.35582 | 8.51151 | 10026 ft | 294 kts | 110° |
| 2026-05-07 09:34 | 50.34832 | 8.54127 | 10012 ft | 294 kts | 110° |
| 2026-05-07 09:34 | 50.34091 | 8.57064 | 10013 ft | 294 kts | 110° |
| 2026-05-07 09:34 | 50.33343 | 8.60040 | 10016 ft | 294 kts | 110° |
| 2026-05-07 09:34 | 50.32586 | 8.63053 | 9781 ft | 293 kts | 110° |
| 2026-05-07 09:35 | 50.31837 | 8.66019 | 9389 ft | 292 kts | 110° |
| 2026-05-07 09:35 | 50.31091 | 8.68968 | 8997 ft | 290 kts | 110° |
| 2026-05-07 09:35 | 50.30360 | 8.71850 | 8631 ft | 289 kts | 110° |
| 2026-05-07 09:35 | 50.29619 | 8.74760 | 8254 ft | 287 kts | 110° |
| 2026-05-07 09:36 | 50.28880 | 8.77654 | 7877 ft | 285 kts | 110° |
| 2026-05-07 09:36 | 50.28145 | 8.80524 | 7496 ft | 284 kts | 110° |
| 2026-05-07 09:36 | 50.27415 | 8.83381 | 7138 ft | 282 kts | 110° |
| 2026-05-07 09:36 | 50.26681 | 8.86212 | 6750 ft | 281 kts | 113° |
| 2026-05-07 09:37 | 50.25535 | 8.88646 | 6394 ft | 281 kts | 140° |
| 2026-05-07 09:37 | 50.23819 | 8.90054 | 6042 ft | 280 kts | 161° |
| 2026-05-07 09:37 | 50.21956 | 8.90957 | 5667 ft | 280 kts | 163° |
| 2026-05-07 09:37 | 50.20094 | 8.91809 | 5302 ft | 279 kts | 164° |
| 2026-05-07 09:38 | 50.18240 | 8.92646 | 4983 ft | 274 kts | 164° |
| 2026-05-07 09:38 | 50.16390 | 8.93095 | 4731 ft | 268 kts | 185° |
| 2026-05-07 09:38 | 50.14651 | 8.92255 | 4463 ft | 260 kts | 211° |
| 2026-05-07 09:38 | 50.13215 | 8.90608 | 4206 ft | 254 kts | 222° |
| 2026-05-07 09:39 | 50.11907 | 8.88811 | 4030 ft | 247 kts | 224° |
| 2026-05-07 09:39 | 50.10778 | 8.86944 | 3988 ft | 224 kts | 242° |
| 2026-05-07 09:39 | 50.10188 | 8.84842 | 3889 ft | 205 kts | 253° |
| 2026-05-07 09:39 | 50.09709 | 8.82776 | 3671 ft | 201 kts | 253° |
| 2026-05-07 09:40 | 50.09235 | 8.80741 | 3412 ft | 199 kts | 253° |
| 2026-05-07 09:40 | 50.08763 | 8.78737 | 3127 ft | 195 kts | 253° |
| 2026-05-07 09:40 | 50.08302 | 8.76782 | 2871 ft | 191 kts | 252° |
| 2026-05-07 09:40 | 50.07845 | 8.74848 | 2605 ft | 190 kts | 252° |
| 2026-05-07 09:41 | 50.07397 | 8.72954 | 2357 ft | 182 kts | 252° |
| 2026-05-07 09:41 | 50.06969 | 8.71147 | 2110 ft | 173 kts | 252° |
| 2026-05-07 09:41 | 50.06697 | 8.70002 | 1943 ft | 168 kts | 253° |
| 2026-05-07 09:41 | 50.06303 | 8.68340 | 1728 ft | 159 kts | 252° |
| 2026-05-07 09:42 | 50.05930 | 8.66765 | 1511 ft | 151 kts | 252° |
| 2026-05-07 09:42 | 50.05572 | 8.65259 | 1310 ft | 147 kts | 252° |
| 2026-05-07 09:42 | 50.05221 | 8.63777 | 1108 ft | 146 kts | 252° |
| 2026-05-07 09:42 | 50.04873 | 8.62316 | 926 ft | 142 kts | 251° |
| 2026-05-07 09:43 | 50.04527 | 8.60874 | 691 ft | 143 kts | 250° |
| 2026-05-07 09:43 | 50.04192 | 8.59437 | 523 ft | 140 kts | 251° |
| 2026-05-07 09:43 | 50.03858 | 8.58041 | 368 ft | 132 kts | 252° |
| 2026-05-07 09:43 | 50.03590 | 8.56910 | 355 ft | 87 kts | 249° |
| 2026-05-07 09:44 | 50.03451 | 8.56321 | 352 ft | 39 kts | 252° |
| 2026-05-07 09:44 | 50.03445 | 8.56057 | 352 ft | 24 kts | 275° |
| 2026-05-07 09:44 | 50.03465 | 8.55817 | 348 ft | 15 kts | 277° |
| 2026-05-07 09:44 | 50.03506 | 8.55712 | 345 ft | 11 kts | 352° |
| 2026-05-07 09:45 | 50.03557 | 8.55751 | 349 ft | 8 kts | 56° |
| 2026-05-07 09:45 | 50.03596 | 8.55909 | 354 ft | 18 kts | 71° |
| 2026-05-07 09:45 | 50.03636 | 8.56078 | 357 ft | 15 kts | 69° |
| 2026-05-07 09:45 | 50.03670 | 8.56217 | 356 ft | 13 kts | 69° |
| 2026-05-07 09:46 | 50.03706 | 8.56363 | 354 ft | 18 kts | 70° |
| 2026-05-07 09:46 | 50.03746 | 8.56536 | 357 ft | 16 kts | 70° |
| 2026-05-07 09:46 | 50.03784 | 8.56693 | 359 ft | 15 kts | 69° |
| 2026-05-07 09:46 | 50.03816 | 8.56830 | 356 ft | 13 kts | 70° |
| 2026-05-07 09:47 | 50.03860 | 8.57010 | 359 ft | 20 kts | 69° |
| 2026-05-07 09:47 | 50.03907 | 8.57204 | 360 ft | 18 kts | 70° |
| 2026-05-07 09:47 | 50.03949 | 8.57384 | 363 ft | 19 kts | 70° |
| 2026-05-07 09:47 | 50.04006 | 8.57624 | 366 ft | 27 kts | 69° |
| 2026-05-07 09:48 | 50.04065 | 8.57871 | 366 ft | 15 kts | 69° |
| 2026-05-07 09:48 | 50.04103 | 8.58030 | 372 ft | 16 kts | 70° |
| 2026-05-07 09:48 | 50.04144 | 8.58199 | 370 ft | 18 kts | 69° |
| 2026-05-07 09:48 | 50.04195 | 8.58406 | 370 ft | 23 kts | 69° |
| 2026-05-07 09:49 | 50.04253 | 8.58651 | 373 ft | 25 kts | 70° |
| 2026-05-07 09:49 | 50.04313 | 8.58901 | 375 ft | 24 kts | 69° |
| 2026-05-07 09:49 | 50.04373 | 8.59146 | 377 ft | 25 kts | 69° |
| 2026-05-07 09:49 | 50.04420 | 8.59345 | 376 ft | 14 kts | 70° |
| 2026-05-07 09:50 | 50.04463 | 8.59461 | 375 ft | 12 kts | 34° |
| 2026-05-07 09:50 | 50.04546 | 8.59468 | 374 ft | 13 kts | 358° |
| 2026-05-07 09:50 | 50.04648 | 8.59459 | 372 ft | 16 kts | 351° |
| 2026-05-07 09:50 | 50.04745 | 8.59416 | 372 ft | 12 kts | 340° |
| 2026-05-07 09:51 | 50.04830 | 8.59364 | 370 ft | 12 kts | 326° |
| 2026-05-07 09:51 | 50.04843 | 8.59254 | 370 ft | 12 kts | 250° |
| 2026-05-07 09:51 | 50.04822 | 8.59162 | 369 ft | 9 kts | 251° |
| 2026-05-07 09:51 | 50.04815 | 8.59092 | 370 ft | 5 kts | 290° |
| 2026-05-07 09:52 | 50.04847 | 8.59066 | 370 ft | 6 kts | 340° |
| 2026-05-07 09:52 | 50.04874 | 8.59050 | 369 ft | 0 kts | 340° |
| 2026-05-07 09:52 | 50.04877 | 8.59048 | 368 ft | 0 kts | 340° |
| 2026-05-07 09:52 | 50.04878 | 8.59048 | 368 ft | 0 kts | 340° |